Time;durP1;ratioP1;P1;durP2;ratioP2;P2;SDS_P1;SDS_P2;PMS_P1;PMS_P2;Temp;Humidity;BMP_temperature;BMP_pressure;BME280_temperature;BME280_humidity;BME280_pressure;Samples;Min_cycle;Max_cycle;Signal;HPM_P1;HPM_P2
2022/04/30 00:00:47;;;;;;;8.20;4.80;;;14.90;55.70;;;;;;6242669;22;20424;-46
2022/04/30 00:03:14;;;;;;;7.60;4.20;;;14.90;55.50;;;;;;6242473;23;20412;-45
2022/04/30 00:05:42;;;;;;;8.40;5.20;;;14.80;55.50;;;;;;6243013;23;20498;-41
2022/04/30 00:08:09;;;;;;;10.43;5.40;;;14.80;55.60;;;;;;6243048;23;20439;-46
2022/04/30 00:10:38;;;;;;;7.93;4.27;;;14.80;55.40;;;;;;6242905;23;20423;-49
2022/04/30 00:13:06;;;;;;;9.33;4.93;;;14.80;55.70;;;;;;6242241;23;20515;-39
2022/04/30 00:15:34;;;;;;;6.70;4.23;;;14.70;55.60;;;;;;6242525;22;20408;-45
2022/04/30 00:18:01;;;;;;;7.67;4.93;;;14.70;55.70;;;;;;6242330;23;20406;-40
2022/04/30 00:20:28;;;;;;;9.30;4.60;;;14.70;55.60;;;;;;6242352;23;20954;-45
2022/04/30 00:22:56;;;;;;;10.90;4.17;;;14.70;55.50;;;;;;6242412;23;20400;-42
2022/04/30 00:25:25;;;;;;;8.03;4.30;;;14.70;55.90;;;;;;6242872;23;20384;-40
2022/04/30 00:27:52;;;;;;;6.90;4.00;;;14.70;56.10;;;;;;6242600;23;20475;-42
2022/04/30 00:30:19;;;;;;;4.80;3.43;;;14.60;55.60;;;;;;6242715;23;20412;-41
2022/04/30 00:32:46;;;;;;;8.37;4.20;;;14.50;55.70;;;;;;6242941;23;20394;-40
2022/04/30 00:35:14;;;;;;;6.50;4.43;;;14.50;55.70;;;;;;6242423;23;20440;-51
2022/04/30 00:37:41;;;;;;;7.40;3.70;;;14.50;55.70;;;;;;6242112;23;20389;-45
2022/04/30 00:40:10;;;;;;;7.07;4.30;;;14.50;55.80;;;;;;6241718;23;20423;-50
2022/04/30 00:42:36;;;;;;;9.47;4.10;;;14.50;56.10;;;;;;6242109;23;20435;-47
2022/04/30 00:45:04;;;;;;;6.10;4.10;;;14.40;56.00;;;;;;6242692;23;20418;-42
2022/04/30 00:47:31;;;;;;;7.50;3.40;;;14.40;56.20;;;;;;6242574;22;20451;-45
2022/04/30 00:49:58;;;;;;;9.30;4.00;;;14.40;56.30;;;;;;6242545;23;20431;-46
2022/04/30 00:52:26;;;;;;;6.20;3.97;;;14.40;56.40;;;;;;6242616;23;20451;-42
2022/04/30 00:54:59;;;;;;;8.40;3.87;;;14.40;56.80;;;;;;6241812;23;20384;-42
2022/04/30 00:57:31;;;;;;;6.60;3.80;;;14.30;56.80;;;;;;6242599;22;20383;-46
2022/04/30 01:00:00;;;;;;;7.17;3.73;;;14.30;57.10;;;;;;6242498;23;20392;-46
2022/04/30 01:02:29;;;;;;;7.60;4.00;;;14.20;57.40;;;;;;6241938;23;20412;-44
2022/04/30 01:04:56;;;;;;;8.33;4.60;;;14.20;57.80;;;;;;6242343;23;20428;-48
2022/04/30 01:07:23;;;;;;;8.00;5.13;;;14.10;58.20;;;;;;6242441;23;20384;-46
2022/04/30 01:09:53;;;;;;;6.70;4.90;;;14.10;58.50;;;;;;6242047;23;20488;-40
2022/04/30 01:12:21;;;;;;;5.40;4.07;;;14.00;59.00;;;;;;6242718;23;20376;-40
2022/04/30 01:14:52;;;;;;;6.67;4.13;;;14.00;59.40;;;;;;6242257;23;20455;-50
2022/04/30 01:17:18;;;;;;;5.60;4.20;;;13.90;59.50;;;;;;6242639;23;20422;-46
2022/04/30 01:19:53;;;;;;;8.00;5.57;;;13.90;59.90;;;;;;6242467;22;20412;-40
2022/04/30 01:22:25;;;;;;;8.50;4.70;;;13.80;60.00;;;;;;6242149;23;20459;-42
2022/04/30 01:24:56;;;;;;;7.33;4.07;;;13.80;60.10;;;;;;6241642;23;20384;-45
2022/04/30 01:27:25;;;;;;;7.50;5.43;;;13.70;60.20;;;;;;6241990;23;20451;-47
2022/04/30 01:29:52;;;;;;;5.57;4.07;;;13.70;60.40;;;;;;6241459;23;20689;-49
2022/04/30 01:37:57;;;;;;;6.60;4.80;;;13.60;61.20;;;;;;6241240;23;20418;-41
2022/04/30 01:40:25;;;;;;;14.93;5.30;;;13.60;61.20;;;;;;6241696;23;20404;-48
2022/04/30 01:42:52;;;;;;;8.83;4.93;;;13.60;61.50;;;;;;6241081;23;20435;-44
2022/04/30 01:45:19;;;;;;;13.13;4.90;;;13.50;61.20;;;;;;6241141;23;20408;-39
2022/04/30 01:47:47;;;;;;;7.83;4.73;;;13.60;61.30;;;;;;6240563;23;20428;-44
2022/04/30 01:50:15;;;;;;;8.03;5.73;;;13.50;61.10;;;;;;6240098;23;20434;-51
2022/04/30 01:52:42;;;;;;;8.73;5.13;;;13.60;61.30;;;;;;6241111;23;20399;-40
2022/04/30 01:55:11;;;;;;;10.77;5.90;;;13.60;61.00;;;;;;6239720;23;20400;-36
2022/04/30 01:57:41;;;;;;;7.10;4.37;;;13.50;60.90;;;;;;6240266;23;20388;-46
2022/04/30 02:00:09;;;;;;;9.27;4.30;;;13.60;61.40;;;;;;6241734;22;20415;-39
2022/04/30 02:02:38;;;;;;;5.73;3.67;;;13.60;61.60;;;;;;6241095;23;20416;-40
2022/04/30 02:05:07;;;;;;;5.83;3.80;;;13.60;61.80;;;;;;6239929;23;20403;-39
2022/04/30 02:07:39;;;;;;;6.13;4.27;;;13.50;61.40;;;;;;6240173;23;20447;-39
2022/04/30 02:10:07;;;;;;;7.97;6.63;;;13.50;61.40;;;;;;6239521;23;20388;-38
2022/04/30 02:12:35;;;;;;;6.23;3.47;;;13.50;61.20;;;;;;6240566;23;20388;-42
2022/04/30 02:15:08;;;;;;;5.90;3.80;;;13.50;61.10;;;;;;6240928;23;20459;-46
2022/04/30 02:17:40;;;;;;;10.50;4.00;;;13.50;61.40;;;;;;6240746;23;20419;-45
2022/04/30 02:20:22;;;;;;;7.30;3.60;;;13.50;61.40;;;;;;6241046;23;20434;-41
2022/04/30 02:22:50;;;;;;;5.20;4.53;;;13.50;61.40;;;;;;6241260;23;20379;-43
2022/04/30 02:25:20;;;;;;;5.40;3.87;;;13.50;61.60;;;;;;6240914;22;20408;-45
2022/04/30 02:27:48;;;;;;;6.27;3.97;;;13.40;61.20;;;;;;6240996;23;20416;-46
2022/04/30 02:30:18;;;;;;;6.10;4.07;;;13.50;61.40;;;;;;6241194;23;20438;-41
2022/04/30 02:32:46;;;;;;;5.60;3.63;;;13.40;62.30;;;;;;6241050;23;20428;-39
2022/04/30 02:35:15;;;;;;;6.33;3.90;;;13.40;62.30;;;;;;6240581;23;20404;-48
2022/04/30 02:37:45;;;;;;;6.70;3.60;;;13.30;62.60;;;;;;6241323;23;20470;-39
2022/04/30 02:40:14;;;;;;;7.93;4.53;;;13.30;63.10;;;;;;6240471;23;20431;-41
2022/04/30 02:42:41;;;;;;;3.80;3.13;;;13.30;63.80;;;;;;6241005;23;20404;-43
2022/04/30 02:45:09;;;;;;;8.40;3.90;;;13.30;63.50;;;;;;6241240;23;20635;-40
2022/04/30 02:47:38;;;;;;;6.20;3.20;;;13.20;63.40;;;;;;6241355;23;20418;-43
2022/04/30 02:50:08;;;;;;;9.93;4.87;;;13.20;63.50;;;;;;6241291;23;20431;-51
2022/04/30 02:52:35;;;;;;;4.17;3.80;;;13.10;63.20;;;;;;6241720;23;20391;-46
2022/04/30 02:55:02;;;;;;;5.73;3.57;;;13.10;62.70;;;;;;6241099;23;20400;-45
2022/04/30 02:57:39;;;;;;;6.17;3.57;;;13.10;62.70;;;;;;6240557;23;20454;-43
2022/04/30 03:00:06;;;;;;;4.80;3.37;;;13.10;62.60;;;;;;6241405;23;20379;-43
2022/04/30 03:02:33;;;;;;;7.03;2.80;;;13.10;62.80;;;;;;6240161;23;20404;-46
2022/04/30 03:05:01;;;;;;;5.83;3.10;;;13.10;62.70;;;;;;6241485;23;20484;-48
2022/04/30 03:07:28;;;;;;;9.17;3.73;;;13.10;62.30;;;;;;6240960;23;20419;-46
2022/04/30 03:09:55;;;;;;;5.60;3.17;;;13.10;62.50;;;;;;6240709;23;20388;-42
2022/04/30 03:12:25;;;;;;;7.10;3.67;;;13.00;62.60;;;;;;6240418;23;20368;-40
2022/04/30 03:14:53;;;;;;;4.23;2.77;;;13.10;62.60;;;;;;6240347;23;20432;-46
2022/04/30 03:22:57;;;;;;;4.07;2.60;;;13.10;63.00;;;;;;6240945;23;20383;-40
2022/04/30 03:25:24;;;;;;;4.13;3.10;;;13.10;62.80;;;;;;6240679;23;20468;-44
2022/04/30 03:27:50;;;;;;;5.50;2.87;;;13.00;63.10;;;;;;6243044;23;20446;-44
2022/04/30 03:30:20;;;;;;;3.77;2.57;;;13.00;62.60;;;;;;6242649;23;20432;-50
2022/04/30 03:32:48;;;;;;;6.47;3.13;;;13.00;62.70;;;;;;6242818;23;20451;-41
2022/04/30 03:35:16;;;;;;;6.53;2.47;;;12.90;62.50;;;;;;6243204;23;20400;-42
2022/04/30 03:37:43;;;;;;;5.40;2.93;;;12.90;62.70;;;;;;6242640;23;20430;-43
2022/04/30 03:40:16;;;;;;;4.00;2.77;;;12.80;62.70;;;;;;6242448;23;20387;-42
2022/04/30 03:42:43;;;;;;;7.20;3.47;;;12.70;63.10;;;;;;6242357;23;20466;-46
2022/04/30 03:45:11;;;;;;;6.00;3.27;;;12.70;63.60;;;;;;6241675;22;20500;-44
2022/04/30 03:47:37;;;;;;;6.70;2.90;;;12.70;64.00;;;;;;6242251;23;20402;-48
2022/04/30 03:50:05;;;;;;;5.00;3.37;;;12.70;63.90;;;;;;6242332;23;20400;-39
2022/04/30 03:52:39;;;;;;;5.97;3.40;;;12.60;63.90;;;;;;6242473;23;20391;-43
2022/04/30 03:55:07;;;;;;;6.13;3.33;;;12.60;64.30;;;;;;6242365;23;20464;-52
2022/04/30 03:57:34;;;;;;;7.03;2.63;;;12.60;64.30;;;;;;6242230;23;20439;-46
2022/04/30 04:00:04;;;;;;;6.10;4.03;;;12.60;64.70;;;;;;6242607;23;20396;-40
2022/04/30 04:02:31;;;;;;;5.10;2.70;;;12.60;65.00;;;;;;6242397;23;20412;-48
2022/04/30 04:04:58;;;;;;;5.83;3.17;;;12.60;64.80;;;;;;6242782;23;20408;-45
2022/04/30 04:07:26;;;;;;;3.60;3.00;;;12.60;65.00;;;;;;6242667;23;20468;-46
2022/04/30 04:09:54;;;;;;;4.37;2.97;;;12.60;65.10;;;;;;6242456;23;20467;-43
2022/04/30 04:12:22;;;;;;;7.10;3.50;;;12.60;65.50;;;;;;6242168;23;20420;-38
2022/04/30 04:17:41;;;;;;;9.67;3.97;;;12.50;65.50;;;;;;6204178;23;20450;-42
2022/04/30 04:20:09;;;;;;;6.60;3.57;;;12.50;65.60;;;;;;6242078;23;20400;-44
2022/04/30 04:22:36;;;;;;;5.70;3.20;;;12.50;65.70;;;;;;6242208;23;20392;-45
2022/04/30 04:27:53;;;;;;;11.70;2.63;;;12.40;67.50;;;;;;6242331;23;20419;-45
2022/04/30 04:30:20;;;;;;;5.37;3.13;;;12.30;67.80;;;;;;6242150;23;20388;-49
2022/04/30 04:32:47;;;;;;;3.80;3.20;;;12.40;67.70;;;;;;6241973;23;20415;-46
2022/04/30 04:35:17;;;;;;;8.07;3.40;;;12.40;67.20;;;;;;6241977;23;20380;-45
2022/04/30 04:37:46;;;;;;;4.77;3.17;;;12.40;67.30;;;;;;6241140;23;20439;-42
2022/04/30 04:40:16;;;;;;;5.03;3.50;;;12.40;67.40;;;;;;6242229;23;20420;-46
2022/04/30 04:42:44;;;;;;;5.00;3.80;;;12.50;67.40;;;;;;6242371;22;20402;-46
2022/04/30 04:45:11;;;;;;;7.20;4.27;;;12.50;67.80;;;;;;6241819;23;20835;-44
2022/04/30 04:47:40;;;;;;;4.20;3.53;;;12.50;66.80;;;;;;6241922;23;20388;-43
2022/04/30 04:50:10;;;;;;;5.30;3.27;;;12.60;67.90;;;;;;6241970;23;20411;-47
2022/04/30 04:52:37;;;;;;;9.27;4.93;;;12.60;68.10;;;;;;6241829;23;20412;-46
2022/04/30 04:55:04;;;;;;;5.57;3.37;;;12.60;67.60;;;;;;6241759;23;20412;-47
2022/04/30 04:57:32;;;;;;;5.57;3.47;;;12.60;67.80;;;;;;6241641;23;20455;-40
2022/04/30 04:59:59;;;;;;;5.90;3.70;;;12.70;68.30;;;;;;6241782;23;20396;-37
2022/04/30 05:02:26;;;;;;;5.30;3.20;;;12.70;67.50;;;;;;6241618;23;20400;-45
2022/04/30 05:04:52;;;;;;;6.50;3.60;;;12.80;67.40;;;;;;6242230;23;20439;-48
2022/04/30 05:07:24;;;;;;;6.03;3.60;;;12.90;67.60;;;;;;6241757;23;20400;-43
2022/04/30 05:09:51;;;;;;;5.37;3.90;;;12.90;67.00;;;;;;6242178;23;20413;-45
2022/04/30 05:12:18;;;;;;;4.23;3.10;;;12.90;67.50;;;;;;6242315;23;20408;-45
2022/04/30 05:14:48;;;;;;;9.57;3.93;;;13.00;66.80;;;;;;6241758;23;20412;-48
2022/04/30 05:17:15;;;;;;;6.23;3.23;;;13.00;67.90;;;;;;6241870;23;20427;-45
2022/04/30 05:19:42;;;;;;;3.83;2.97;;;13.00;67.40;;;;;;6241844;23;20400;-44
2022/04/30 05:22:10;;;;;;;11.33;4.03;;;13.00;67.10;;;;;;6241810;23;20682;-42
2022/04/30 05:24:37;;;;;;;5.83;2.97;;;13.10;67.40;;;;;;6241520;23;20415;-44
2022/04/30 05:27:04;;;;;;;7.13;4.37;;;13.10;67.20;;;;;;6242031;23;20412;-47
2022/04/30 05:29:32;;;;;;;6.07;3.57;;;13.20;67.70;;;;;;6241651;23;20422;-48
2022/04/30 05:32:00;;;;;;;5.73;3.50;;;13.20;67.10;;;;;;6242070;23;20439;-44
2022/04/30 05:34:32;;;;;;;4.50;3.23;;;13.20;67.30;;;;;;6241662;23;20889;-42
2022/04/30 05:36:59;;;;;;;3.87;3.17;;;13.30;66.70;;;;;;6241744;23;20428;-46
2022/04/30 05:39:28;;;;;;;5.33;3.30;;;13.30;66.30;;;;;;6241771;23;20858;-42
2022/04/30 05:41:57;;;;;;;5.80;3.77;;;13.40;65.90;;;;;;6241793;22;20403;-42
2022/04/30 05:44:25;;;;;;;5.13;2.93;;;13.40;66.10;;;;;;6242113;23;20398;-44
2022/04/30 05:46:52;;;;;;;6.00;3.30;;;13.50;65.90;;;;;;6241581;23;20475;-46
2022/04/30 05:49:20;;;;;;;3.83;2.83;;;13.50;65.80;;;;;;6241609;23;20437;-46
2022/04/30 05:51:51;;;;;;;8.40;3.60;;;13.60;65.20;;;;;;6241676;23;20404;-44
2022/04/30 05:54:17;;;;;;;8.20;3.77;;;13.60;65.70;;;;;;6241729;23;20427;-47
2022/04/30 05:56:44;;;;;;;8.63;3.27;;;13.70;64.80;;;;;;6241517;23;20450;-49
2022/04/30 05:59:13;;;;;;;5.10;3.60;;;13.80;67.50;;;;;;6241445;23;20404;-45
2022/04/30 06:01:39;;;;;;;7.23;3.73;;;13.80;67.50;;;;;;6241477;23;20392;-47
2022/04/30 06:04:12;;;;;;;8.97;4.20;;;13.90;67.80;;;;;;6241631;23;20440;-47
2022/04/30 06:06:40;;;;;;;3.60;3.30;;;13.90;67.80;;;;;;6241528;23;20392;-40
2022/04/30 06:09:10;;;;;;;11.33;3.60;;;14.00;67.80;;;;;;6240823;23;20399;-45
2022/04/30 06:11:39;;;;;;;5.10;3.70;;;14.00;67.90;;;;;;6240814;23;20424;-45
2022/04/30 06:14:08;;;;;;;9.33;3.67;;;14.10;68.00;;;;;;6240374;23;20909;-47
2022/04/30 06:16:35;;;;;;;11.33;4.00;;;14.20;68.10;;;;;;6240272;22;20442;-49
2022/04/30 06:19:01;;;;;;;4.40;3.97;;;14.20;67.80;;;;;;6240612;23;20420;-48
2022/04/30 06:21:28;;;;;;;5.00;4.00;;;14.30;67.80;;;;;;6240248;23;20410;-43
2022/04/30 06:23:58;;;;;;;7.33;3.73;;;14.40;67.50;;;;;;6240645;23;20384;-43
2022/04/30 06:26:25;;;;;;;5.63;3.00;;;14.40;66.90;;;;;;6240407;23;20434;-44
2022/04/30 06:28:51;;;;;;;8.33;3.93;;;14.50;66.70;;;;;;6240479;23;20400;-43
2022/04/30 06:31:18;;;;;;;6.70;3.17;;;14.50;66.20;;;;;;6240201;23;20400;-41
2022/04/30 06:33:47;;;;;;;7.17;3.70;;;14.60;66.10;;;;;;6240041;23;20438;-41
2022/04/30 06:36:13;;;;;;;7.30;3.53;;;14.60;65.70;;;;;;6240289;23;20423;-44
2022/04/30 06:38:42;;;;;;;6.27;3.33;;;14.70;65.80;;;;;;6239564;23;20474;-46
2022/04/30 06:41:10;;;;;;;5.40;3.60;;;14.70;65.40;;;;;;6239821;23;20855;-42
2022/04/30 06:43:37;;;;;;;6.70;3.73;;;14.70;65.00;;;;;;6239980;23;20395;-41
2022/04/30 06:46:08;;;;;;;8.87;3.90;;;14.80;63.70;;;;;;6240235;23;20398;-47
2022/04/30 06:48:37;;;;;;;5.90;3.43;;;14.80;62.90;;;;;;6240252;23;20403;-41
2022/04/30 06:51:05;;;;;;;11.10;3.70;;;14.90;62.30;;;;;;6240435;23;20400;-49
2022/04/30 06:59:10;;;;;;;6.90;4.73;;;15.00;63.60;;;;;;6240292;23;20375;-51
2022/04/30 07:01:43;;;;;;;6.07;3.80;;;15.00;64.40;;;;;;6241269;23;20428;-44
2022/04/30 07:04:10;;;;;;;5.97;3.67;;;15.00;64.40;;;;;;6242285;23;20443;-43
2022/04/30 07:06:38;;;;;;;8.37;4.27;;;15.10;64.40;;;;;;6242482;23;20483;-46
2022/04/30 07:09:08;;;;;;;6.27;4.00;;;15.20;64.60;;;;;;6241074;23;20410;-44
2022/04/30 07:11:36;;;;;;;5.90;3.23;;;15.30;64.00;;;;;;6241980;23;20383;-43
2022/04/30 07:14:04;;;;;;;6.30;3.83;;;15.40;64.30;;;;;;6241508;23;20408;-49
2022/04/30 07:16:31;;;;;;;10.30;4.00;;;15.60;63.60;;;;;;6241802;23;20414;-44
2022/04/30 07:18:58;;;;;;;6.10;4.17;;;15.70;64.10;;;;;;6242366;22;20448;-48
2022/04/30 07:21:25;;;;;;;5.40;4.20;;;15.80;64.10;;;;;;6241649;23;20388;-48
2022/04/30 07:23:52;;;;;;;9.10;4.33;;;16.00;64.90;;;;;;6241572;23;20438;-43
2022/04/30 07:26:19;;;;;;;6.07;4.60;;;16.00;64.90;;;;;;6241566;23;20422;-46
2022/04/30 07:28:49;;;;;;;11.20;4.70;;;16.20;64.90;;;;;;6241072;23;20434;-43
2022/04/30 07:31:16;;;;;;;8.73;5.50;;;16.20;63.40;;;;;;6241351;23;20467;-47
2022/04/30 07:33:42;;;;;;;7.20;4.10;;;16.30;63.60;;;;;;6241056;23;20410;-49
2022/04/30 07:36:09;;;;;;;7.23;4.40;;;16.40;62.60;;;;;;6236198;23;20400;-48
2022/04/30 07:38:36;;;;;;;7.00;4.90;;;16.50;62.60;;;;;;6218764;23;20474;-54
2022/04/30 07:41:03;;;;;;;8.10;4.40;;;16.60;62.50;;;;;;6218679;23;20443;-43
2022/04/30 07:43:30;;;;;;;8.73;4.63;;;16.70;61.70;;;;;;6218170;23;20474;-46
2022/04/30 07:45:58;;;;;;;5.47;4.20;;;16.80;61.60;;;;;;6218332;23;20764;-44
2022/04/30 07:48:25;;;;;;;6.17;3.97;;;16.90;61.90;;;;;;6218513;23;20404;-45
2022/04/30 07:50:57;;;;;;;8.00;4.63;;;17.00;63.10;;;;;;6218445;23;20432;-49
2022/04/30 07:53:24;;;;;;;8.83;4.60;;;17.20;62.90;;;;;;6218700;23;20392;-45
2022/04/30 07:55:51;;;;;;;9.80;6.07;;;17.30;61.80;;;;;;6218693;23;20418;-45
2022/04/30 07:58:18;;;;;;;8.80;4.50;;;17.50;62.00;;;;;;6218512;23;20444;-45
2022/04/30 08:00:44;;;;;;;6.87;4.47;;;17.50;62.60;;;;;;6218450;23;20493;-47
2022/04/30 08:03:12;;;;;;;11.17;4.20;;;17.50;62.60;;;;;;6218196;23;20435;-49
2022/04/30 08:05:39;;;;;;;8.00;4.53;;;17.40;62.40;;;;;;6218462;23;20412;-46
2022/04/30 08:08:06;;;;;;;5.90;4.50;;;17.40;62.50;;;;;;6218206;23;20429;-46
2022/04/30 08:10:33;;;;;;;9.63;5.30;;;17.40;62.40;;;;;;6218283;23;20393;-44
2022/04/30 08:13:00;;;;;;;6.70;4.93;;;17.60;62.50;;;;;;6217996;23;20446;-45
2022/04/30 08:15:27;;;;;;;10.87;5.80;;;17.70;61.30;;;;;;6217923;23;20440;-51
2022/04/30 08:17:54;;;;;;;9.30;4.57;;;17.80;61.90;;;;;;6218183;23;20746;-45
2022/04/30 08:20:23;;;;;;;7.03;4.40;;;18.40;60.20;;;;;;6218202;23;20415;-45
2022/04/30 08:22:50;;;;;;;9.77;4.80;;;18.70;59.70;;;;;;6217768;23;20412;-44
2022/04/30 08:25:17;;;;;;;6.80;4.13;;;19.10;59.60;;;;;;6218244;23;20524;-50
2022/04/30 08:27:44;;;;;;;7.20;4.07;;;19.40;58.70;;;;;;6218248;23;20421;-49
2022/04/30 08:30:11;;;;;;;9.27;4.47;;;19.90;58.50;;;;;;6217996;23;20427;-49
2022/04/30 08:32:38;;;;;;;7.37;4.03;;;20.20;57.70;;;;;;6218084;23;20411;-50
2022/04/30 08:35:05;;;;;;;6.63;5.00;;;20.20;56.30;;;;;;6217586;23;20404;-50
2022/04/30 08:37:33;;;;;;;8.10;4.57;;;20.40;56.20;;;;;;6217980;23;20511;-50
2022/04/30 08:40:00;;;;;;;5.70;3.70;;;20.90;55.40;;;;;;6217695;23;20416;-44
2022/04/30 08:42:27;;;;;;;5.37;4.00;;;21.40;53.50;;;;;;6217698;23;20921;-48
2022/04/30 08:44:55;;;;;;;8.77;4.33;;;21.40;53.00;;;;;;6218175;23;20680;-49
2022/04/30 08:47:22;;;;;;;4.50;3.80;;;21.60;52.50;;;;;;6217456;23;20443;-48
2022/04/30 08:49:50;;;;;;;5.80;3.37;;;21.60;52.50;;;;;;6217996;23;20419;-48
2022/04/30 08:52:16;;;;;;;5.23;4.70;;;21.50;52.00;;;;;;6217469;23;20428;-52
2022/04/30 08:54:44;;;;;;;11.43;5.57;;;21.30;52.40;;;;;;6217940;23;20413;-44
2022/04/30 08:57:11;;;;;;;8.73;6.53;;;21.00;51.90;;;;;;6217933;23;20416;-46
2022/04/30 08:59:38;;;;;;;5.30;4.17;;;20.80;53.00;;;;;;6217899;23;20400;-47
2022/04/30 09:02:10;;;;;;;7.57;6.37;;;20.50;54.40;;;;;;6217916;23;20469;-45
2022/04/30 09:04:48;;;;;;;5.73;4.00;;;20.10;54.10;;;;;;6217809;23;20464;-47
2022/04/30 09:07:16;;;;;;;5.90;5.00;;;19.80;55.40;;;;;;6217824;23;20458;-47
2022/04/30 09:09:45;;;;;;;6.37;4.03;;;19.50;56.40;;;;;;6217374;23;20427;-47
2022/04/30 09:12:14;;;;;;;7.63;4.37;;;19.30;57.50;;;;;;6217263;23;20930;-45
2022/04/30 09:14:42;;;;;;;7.07;4.47;;;19.20;57.80;;;;;;6217206;23;20435;-44
2022/04/30 09:17:11;;;;;;;8.33;3.80;;;19.10;57.60;;;;;;6217364;23;20400;-48
2022/04/30 09:19:47;;;;;;;8.00;4.50;;;19.00;57.70;;;;;;6217522;23;20446;-43
2022/04/30 09:22:14;;;;;;;4.73;3.10;;;19.10;57.90;;;;;;6218157;23;20430;-48
2022/04/30 09:24:50;;;;;;;7.17;3.73;;;19.20;58.10;;;;;;6217455;23;20487;-47
2022/04/30 09:27:18;;;;;;;8.77;3.87;;;19.30;57.80;;;;;;6217714;23;20927;-44
2022/04/30 09:29:45;;;;;;;10.20;3.43;;;19.50;57.60;;;;;;6217569;23;20447;-47
2022/04/30 09:32:17;;;;;;;4.90;3.17;;;19.80;57.20;;;;;;6217553;23;20428;-50
2022/04/30 09:37:42;;;;;;;6.60;3.70;;;20.50;55.50;;;;;;6217190;23;20495;-49
2022/04/30 09:40:20;;;;;;;4.97;3.77;;;20.80;54.50;;;;;;6217403;23;20388;-51
2022/04/30 09:42:47;;;;;;;6.23;4.07;;;21.00;54.10;;;;;;6219325;23;20976;-48
2022/04/30 09:45:24;;;;;;;3.83;3.43;;;21.10;53.40;;;;;;6219740;23;20470;-46
2022/04/30 09:47:51;;;;;;;7.50;4.00;;;21.40;53.70;;;;;;6227573;23;20446;-39
2022/04/30 09:55:52;;;;;;;5.80;3.83;;;22.40;52.50;;;;;;6240651;23;20373;-45
2022/04/30 09:58:22;;;;;;;7.00;3.70;;;22.70;51.70;;;;;;6241479;22;20474;-50
2022/04/30 10:00:52;;;;;;;6.63;3.30;;;22.80;51.20;;;;;;6241645;23;20396;-44
2022/04/30 10:03:19;;;;;;;6.10;3.77;;;22.90;51.30;;;;;;6241518;22;20446;-47
2022/04/30 10:05:46;;;;;;;4.80;3.83;;;22.90;51.20;;;;;;6241496;23;20431;-44
2022/04/30 10:08:13;;;;;;;4.83;3.73;;;22.80;51.20;;;;;;6241310;23;20448;-46
2022/04/30 10:10:47;;;;;;;7.10;3.63;;;22.70;51.40;;;;;;6241528;23;20397;-45
2022/04/30 10:13:22;;;;;;;4.97;3.90;;;23.00;52.30;;;;;;6241512;23;20408;-48
2022/04/30 10:15:52;;;;;;;5.30;4.27;;;23.60;50.80;;;;;;6241939;23;20406;-44
2022/04/30 10:18:23;;;;;;;4.77;4.17;;;23.90;49.40;;;;;;6240882;23;20443;-41
2022/04/30 10:20:51;;;;;;;7.60;3.83;;;24.20;49.30;;;;;;6240141;23;20364;-42
2022/04/30 10:23:18;;;;;;;7.67;4.00;;;24.30;49.50;;;;;;6240772;23;20431;-40
2022/04/30 10:25:47;;;;;;;7.70;3.93;;;24.20;48.90;;;;;;6239977;23;20364;-44
2022/04/30 10:28:23;;;;;;;7.63;4.20;;;24.00;49.40;;;;;;6240844;23;20443;-42
2022/04/30 10:30:59;;;;;;;6.33;4.40;;;23.60;48.80;;;;;;6241048;23;20384;-44
2022/04/30 10:33:26;;;;;;;5.07;3.90;;;23.30;49.60;;;;;;6240604;23;20384;-46
2022/04/30 10:36:04;;;;;;;5.73;4.73;;;22.90;50.90;;;;;;6242062;23;20419;-40
2022/04/30 10:38:31;;;;;;;5.80;4.07;;;22.60;50.00;;;;;;6243009;23;20431;-43
2022/04/30 10:40:59;;;;;;;8.97;3.97;;;22.40;50.20;;;;;;6243392;23;20435;-43
2022/04/30 10:43:34;;;;;;;7.03;5.20;;;22.20;50.50;;;;;;6243310;23;20400;-41
2022/04/30 10:46:01;;;;;;;5.70;3.77;;;22.10;51.10;;;;;;6243405;23;20446;-40
2022/04/30 10:48:28;;;;;;;7.53;3.70;;;21.90;50.60;;;;;;6243127;23;20384;-46
2022/04/30 10:51:05;;;;;;;8.57;4.10;;;21.90;51.00;;;;;;6243302;22;20415;-40
2022/04/30 10:53:42;;;;;;;6.97;3.93;;;21.90;50.80;;;;;;6243534;23;20396;-41
2022/04/30 10:56:11;;;;;;;5.67;3.53;;;21.90;51.10;;;;;;6242662;23;20388;-45
2022/04/30 10:58:41;;;;;;;5.53;4.03;;;21.90;50.60;;;;;;6242815;23;20493;-44
2022/04/30 11:01:12;;;;;;;6.70;4.10;;;21.80;50.80;;;;;;6243913;22;20408;-39
2022/04/30 11:03:43;;;;;;;8.93;3.77;;;21.70;50.50;;;;;;6243494;23;20491;-46
2022/04/30 11:06:11;;;;;;;5.13;3.80;;;21.50;51.20;;;;;;6243256;23;20388;-40
2022/04/30 11:08:38;;;;;;;8.70;4.37;;;21.40;51.90;;;;;;6243283;23;20400;-40
2022/04/30 11:11:08;;;;;;;4.53;4.03;;;21.20;52.40;;;;;;6242997;23;20424;-45
2022/04/30 11:13:34;;;;;;;7.63;4.00;;;21.20;52.70;;;;;;6243330;23;20400;-43
2022/04/30 11:16:14;;;;;;;5.77;4.40;;;21.10;52.10;;;;;;6242887;23;20428;-45
2022/04/30 11:18:41;;;;;;;6.03;4.03;;;21.20;53.00;;;;;;6243825;23;20444;-43
2022/04/30 11:21:07;;;;;;;6.97;4.13;;;21.50;53.30;;;;;;6243543;23;20412;-42
2022/04/30 11:23:34;;;;;;;4.90;2.90;;;21.80;52.50;;;;;;6243447;23;20392;-44
2022/04/30 11:26:01;;;;;;;5.47;4.40;;;21.90;51.80;;;;;;6242830;23;20643;-44
2022/04/30 11:28:31;;;;;;;8.77;4.37;;;21.80;53.30;;;;;;6242907;23;20440;-43
2022/04/30 11:30:59;;;;;;;8.47;4.30;;;21.70;52.60;;;;;;6243033;23;20450;-46
2022/04/30 11:33:34;;;;;;;4.53;3.63;;;21.60;51.90;;;;;;6242621;23;20407;-43
2022/04/30 11:36:01;;;;;;;6.43;3.80;;;21.50;52.50;;;;;;6242619;23;20427;-41
2022/04/30 11:38:27;;;;;;;6.00;4.53;;;21.40;52.30;;;;;;6242644;23;20443;-43
2022/04/30 11:41:03;;;;;;;5.53;3.97;;;21.40;52.10;;;;;;6242645;23;20424;-46
2022/04/30 11:43:29;;;;;;;7.10;4.23;;;21.50;51.90;;;;;;6243192;23;20414;-46
2022/04/30 11:45:59;;;;;;;6.53;4.50;;;21.70;51.40;;;;;;6242441;23;20442;-39
2022/04/30 11:48:27;;;;;;;8.70;4.50;;;21.70;51.00;;;;;;6242312;23;20407;-46
2022/04/30 11:50:55;;;;;;;6.17;4.00;;;21.70;50.20;;;;;;6242670;23;20487;-41
2022/04/30 11:53:22;;;;;;;12.83;4.20;;;21.80;50.70;;;;;;6242793;23;20500;-44
2022/04/30 11:55:49;;;;;;;6.07;4.50;;;21.70;50.10;;;;;;6242588;23;20488;-42
2022/04/30 11:58:16;;;;;;;6.73;3.80;;;21.70;50.20;;;;;;6242515;23;20396;-44
2022/04/30 12:00:43;;;;;;;9.47;4.93;;;21.60;50.20;;;;;;6242352;23;20416;-43
2022/04/30 12:03:11;;;;;;;7.60;4.20;;;21.50;51.10;;;;;;6243030;23;20392;-39
2022/04/30 12:05:42;;;;;;;8.37;4.60;;;21.50;50.90;;;;;;6242824;23;20384;-44
2022/04/30 12:08:12;;;;;;;6.13;4.67;;;21.30;49.90;;;;;;6242236;23;20411;-43
2022/04/30 12:10:39;;;;;;;7.80;4.50;;;21.10;49.80;;;;;;6242364;23;20402;-42
2022/04/30 12:13:06;;;;;;;4.67;4.10;;;20.90;50.20;;;;;;6242530;23;20459;-48
2022/04/30 12:15:38;;;;;;;5.27;3.93;;;20.80;50.20;;;;;;6242690;23;20373;-43
2022/04/30 12:26:35;;;;;;;7.20;4.97;;;21.50;50.60;;;;;;6187252;23;20467;-45
2022/04/30 12:29:04;;;;;;;5.57;3.97;;;21.70;50.20;;;;;;6235911;23;20404;-46
2022/04/30 12:31:31;;;;;;;5.23;4.50;;;21.90;49.90;;;;;;6235552;23;20408;-48
2022/04/30 12:33:58;;;;;;;5.53;4.03;;;22.10;49.70;;;;;;6236006;23;20403;-49
2022/04/30 12:36:25;;;;;;;9.23;4.20;;;22.10;49.40;;;;;;6235683;23;20408;-49
2022/04/30 12:38:57;;;;;;;5.83;4.30;;;22.10;48.60;;;;;;6236213;23;20496;-50
2022/04/30 12:41:24;;;;;;;7.53;4.47;;;22.10;49.70;;;;;;6235853;23;20415;-45
2022/04/30 12:43:52;;;;;;;6.87;4.97;;;22.00;49.00;;;;;;6235363;23;20447;-48
2022/04/30 12:46:22;;;;;;;7.07;4.27;;;21.90;48.70;;;;;;6236391;23;20415;-46
2022/04/30 12:48:49;;;;;;;5.47;4.23;;;21.90;49.20;;;;;;6236160;23;20443;-45
2022/04/30 12:51:17;;;;;;;6.17;4.40;;;21.70;48.30;;;;;;6235543;23;20408;-45
2022/04/30 12:53:44;;;;;;;7.93;4.87;;;21.70;48.70;;;;;;6235780;23;20450;-48
2022/04/30 12:56:12;;;;;;;8.13;4.37;;;21.60;49.30;;;;;;6235069;23;20490;-46
2022/04/30 12:58:39;;;;;;;6.20;4.63;;;21.50;49.60;;;;;;6234764;23;20428;-43
2022/04/30 13:01:06;;;;;;;5.10;4.33;;;21.60;49.10;;;;;;6235358;23;20404;-48
2022/04/30 13:03:34;;;;;;;6.37;4.40;;;21.60;48.30;;;;;;6235808;23;20412;-48
2022/04/30 13:06:02;;;;;;;4.93;4.07;;;21.70;48.20;;;;;;6236118;23;20605;-41
2022/04/30 13:13:31;;;;;;;11.13;4.17;;;21.70;47.00;;;;;;6234901;23;20527;-45
2022/04/30 13:14:01;;;;;;;5.80;4.00;;;21.60;46.70;;;;;;6234749;23;20434;-44
2022/04/30 13:16:27;;;;;;;7.17;3.80;;;21.70;47.60;;;;;;6235439;23;20427;-48
2022/04/30 13:18:55;;;;;;;10.70;4.00;;;21.80;46.70;;;;;;6234920;23;20452;-44
2022/04/30 13:21:22;;;;;;;6.40;4.63;;;21.80;46.60;;;;;;6235737;23;20404;-44
2022/04/30 13:23:49;;;;;;;5.23;4.00;;;21.90;46.80;;;;;;6235476;23;20495;-42
2022/04/30 13:26:20;;;;;;;6.87;4.63;;;22.00;46.80;;;;;;6235941;23;20411;-48
2022/04/30 13:28:47;;;;;;;5.10;4.20;;;22.10;46.20;;;;;;6234672;23;20446;-46
2022/04/30 13:31:14;;;;;;;5.80;3.87;;;22.10;44.90;;;;;;6234751;23;20435;-45
2022/04/30 13:33:40;;;;;;;8.53;3.37;;;22.10;44.70;;;;;;6234555;23;20462;-43